This is the latest recevied weather packets stored in our database for station/object DM0MR. If no packets are shown the sender has not sent any weather packets the latest 10 day(s).
| Time | Temp. | Humidity | Pressure | Rain* | Wind** | Luminosity | Snow |
|---|---|---|---|---|---|---|---|
| 1788141200 | 15.56° C | 85% | 1009.6 hPa | 0 mm | - | - | - |
| 1788140300 | 16.11° C | 84% | 1010.1 hPa | 0 mm | - | - | - |
| 1788137600 | 16.11° C | 83% | 1010.3 hPa | 0 mm | - | - | - |
| 1788136700 | 14.44° C | 90% | 1010.4 hPa | 0 mm | - | - | - |
| 1788135800 | 14.44° C | 89% | 1010.5 hPa | 0 mm | - | - | - |
| 1788134900 | 14.44° C | 88% | 1010.5 hPa | 0 mm | - | - | - |
| 1788134000 | 14.44° C | 88% | 1010.7 hPa | 0 mm | - | - | - |
| 1788133097 | 14.44° C | 87% | 1010.8 hPa | 0 mm | - | - | - |
| 1788130397 | 15° C | 87% | 1011.4 hPa | 0 mm | - | - | - |
| 1788128598 | 15° C | 86% | 1011.4 hPa | 0 mm | - | - | - |
| 1788127697 | 15° C | 84% | 1011.3 hPa | 0 mm | - | - | - |
| 1788125898 | 15.56° C | 85% | 1011.1 hPa | 0 mm | - | - | - |
| 1788121400 | 16.11° C | 82% | 1011.4 hPa | 0 mm | - | - | - |
| 1788117800 | 17.22° C | 78% | 1011.2 hPa | 0 mm | - | - | - |
| 1788109698 | 22.22° C | 56% | 1010.6 hPa | 0 mm | - | - | - |
| 1788108797 | 22.22° C | 53% | 1010.6 hPa | 0 mm | - | - | - |
| 1788106998 | 22.78° C | 53% | 1010.5 hPa | 0 mm | - | - | - |
| 1788105198 | 23.33° C | 52% | 1010.5 hPa | 0 mm | - | - | - |
| 1788103398 | 23.89° C | 51% | 1010.6 hPa | 0 mm | - | - | - |
| 1788102498 | 23.89° C | 50% | 1010.5 hPa | 0 mm | - | - | - |
| 1788100698 | 24.44° C | 50% | 1010.5 hPa | 0 mm | - | - | - |
| 1788096197 | 26.67° C | 48% | 1010.3 hPa | 0 mm | - | - | - |
| 1788093497 | 26.11° C | 48% | 1010.2 hPa | 0 mm | - | - | - |
| 1788090797 | 24.44° C | 57% | 1010.3 hPa | 0 mm | - | - | - |
| 1788088097 | 23.33° C | 64% | 1010.5 hPa | 0 mm | - | - | - |
* Rain latest hour (hover to see other rain measurements)
** Current wind speed in m/s (hover to see current wind gust speed)